createdAt,value
2022-12-17T00:02:13.642Z,-0.48
2022-12-17T00:05:36.526Z,-0.56
2022-12-17T00:08:57.935Z,-0.54
2022-12-17T00:12:18.100Z,-0.47
2022-12-17T00:19:18.521Z,-0.46
2022-12-17T00:22:39.931Z,-0.52
2022-12-17T00:26:01.481Z,-0.58
2022-12-17T00:29:23.175Z,-0.64
2022-12-17T00:32:43.091Z,-0.67
2022-12-17T00:36:11.011Z,-0.60
2022-12-17T00:39:32.492Z,-0.64
2022-12-17T00:42:53.989Z,-0.59
2022-12-17T00:46:18.195Z,-0.53
2022-12-17T00:49:38.209Z,-0.64
2022-12-17T00:52:59.725Z,-0.60
2022-12-17T00:56:17.730Z,-0.52
2022-12-17T00:59:39.271Z,-0.61
2022-12-17T01:03:00.954Z,-0.52
2022-12-17T01:06:22.065Z,-0.55
2022-12-17T01:09:43.507Z,-0.56
2022-12-17T01:13:06.367Z,-0.50
2022-12-17T01:16:29.028Z,-0.44
2022-12-17T01:19:50.485Z,-0.50
2022-12-17T01:23:10.760Z,-0.44
2022-12-17T01:26:32.267Z,-0.46
2022-12-17T01:29:55.132Z,-0.41
2022-12-17T01:33:22.008Z,-0.33
2022-12-17T01:36:43.446Z,-0.46
2022-12-17T01:40:04.872Z,-0.63
2022-12-17T01:43:39.454Z,-0.47
2022-12-17T01:47:09.529Z,-0.50
2022-12-17T01:50:32.449Z,-0.38
2022-12-17T01:53:58.045Z,-0.42
2022-12-17T01:57:20.701Z,-0.38
2022-12-17T02:00:42.223Z,-0.32
2022-12-17T02:04:05.019Z,-0.30
2022-12-17T02:07:41.121Z,-0.34
2022-12-17T02:11:09.396Z,-0.40
2022-12-17T02:14:41.999Z,-0.50
2022-12-17T02:18:07.711Z,-0.50
2022-12-17T02:21:32.089Z,-0.51
2022-12-17T02:24:57.986Z,-0.53
2022-12-17T02:28:32.635Z,-0.51
2022-12-17T02:31:56.418Z,-0.47
2022-12-17T02:35:20.101Z,-0.43
2022-12-17T02:42:21.970Z,-0.50
2022-12-17T02:45:45.183Z,-0.59
2022-12-17T02:49:05.315Z,-0.60
2022-12-17T02:52:33.331Z,-0.65
2022-12-17T02:55:56.318Z,-0.75
2022-12-17T02:59:16.347Z,-0.82
2022-12-17T03:02:39.045Z,-0.64
2022-12-17T03:06:00.589Z,-0.61
2022-12-17T03:09:22.114Z,-0.57
2022-12-17T03:16:30.292Z,-0.49
2022-12-17T03:19:55.310Z,-0.44
2022-12-17T03:23:21.893Z,-0.64
2022-12-17T03:26:42.059Z,-0.62
2022-12-17T03:33:41.503Z,-0.83
2022-12-17T03:37:04.340Z,-0.65
2022-12-17T03:40:26.916Z,-0.60
2022-12-17T03:43:47.179Z,-0.82
2022-12-17T03:47:20.191Z,-0.79
2022-12-17T03:50:41.811Z,-0.77
2022-12-17T03:54:03.915Z,-0.72
2022-12-17T03:57:24.034Z,-0.81
2022-12-17T04:00:44.136Z,-0.94
2022-12-17T04:04:05.777Z,-0.76
2022-12-17T04:07:27.210Z,-0.90
2022-12-17T04:10:48.728Z,-0.98
2022-12-17T04:14:10.210Z,-0.97
2022-12-17T04:17:30.507Z,-0.76
2022-12-17T04:28:11.705Z,-0.69
2022-12-17T04:31:33.778Z,-0.64
2022-12-17T04:34:54.274Z,-0.64
2022-12-17T04:38:15.670Z,-0.74
2022-12-17T04:41:39.955Z,-0.78
2022-12-17T04:45:01.527Z,-0.83
2022-12-17T04:48:32.260Z,-1.03
2022-12-17T04:51:52.526Z,-0.81
2022-12-17T04:55:14.129Z,-0.83
2022-12-17T04:58:35.716Z,-0.77
2022-12-17T05:01:57.429Z,-0.68
2022-12-17T05:05:18.839Z,-0.70
2022-12-17T05:08:41.251Z,-0.67
2022-12-17T05:12:02.201Z,-0.65
2022-12-17T05:15:24.124Z,-0.81
2022-12-17T05:18:46.878Z,-1.01
2022-12-17T05:22:07.111Z,-0.96
2022-12-17T05:25:29.285Z,-1.01
2022-12-17T05:28:49.619Z,-1.05
2022-12-17T05:32:11.133Z,-0.94
2022-12-17T05:35:32.745Z,-0.95
2022-12-17T05:38:54.274Z,-0.84
2022-12-17T05:42:15.892Z,-0.80
2022-12-17T05:45:36.032Z,-0.83
2022-12-17T05:52:39.094Z,-0.77
2022-12-17T05:55:59.353Z,-0.82
2022-12-17T05:59:20.870Z,-0.74
2022-12-17T06:02:41.176Z,-0.71
2022-12-17T06:06:02.525Z,-0.74
2022-12-17T06:09:25.545Z,-0.70
2022-12-17T06:12:45.780Z,-0.77
2022-12-17T06:16:05.265Z,-0.72
2022-12-17T06:19:25.511Z,-0.81
2022-12-17T06:22:46.987Z,-0.70
2022-12-17T06:26:12.250Z,-0.65
2022-12-17T06:29:32.560Z,-0.57
2022-12-17T06:32:54.167Z,-0.57
2022-12-17T06:36:22.060Z,-0.57
2022-12-17T06:39:44.110Z,-0.60
2022-12-17T06:43:13.454Z,-0.60
2022-12-17T06:46:33.712Z,-0.77
2022-12-17T06:50:00.966Z,-0.88
2022-12-17T06:53:29.305Z,-0.78
2022-12-17T06:56:50.837Z,-0.80
2022-12-17T07:00:13.678Z,-0.73
2022-12-17T07:03:34.189Z,-0.61
2022-12-17T07:06:55.868Z,-0.79
2022-12-17T07:10:17.310Z,-0.85
2022-12-17T07:13:37.593Z,-1.00
2022-12-17T07:17:00.630Z,-0.93
2022-12-17T07:20:22.012Z,-0.97
2022-12-17T07:23:43.695Z,-0.96
2022-12-17T07:27:05.470Z,-1.05
2022-12-17T07:30:26.719Z,-0.95
2022-12-17T07:33:49.404Z,-0.80
2022-12-17T07:37:09.823Z,-0.80
2022-12-17T07:40:32.018Z,-0.69
2022-12-17T07:43:53.446Z,-0.94
2022-12-17T07:47:14.821Z,-0.84
2022-12-17T07:50:37.517Z,-0.75
2022-12-17T07:53:57.453Z,-0.96
2022-12-17T07:57:18.220Z,-0.79
2022-12-17T08:00:42.410Z,-0.82
2022-12-17T08:04:06.008Z,-0.93
2022-12-17T08:07:28.936Z,-0.91
2022-12-17T08:10:49.263Z,-0.96
2022-12-17T08:14:10.851Z,-1.05
2022-12-17T08:21:10.620Z,-0.85
2022-12-17T08:24:33.474Z,-0.74
2022-12-17T08:27:53.725Z,-0.82
2022-12-17T08:31:15.059Z,-0.84
2022-12-17T08:34:36.344Z,-0.94
2022-12-17T08:37:56.547Z,-0.90
2022-12-17T08:41:19.773Z,-0.73
2022-12-17T08:44:41.352Z,-0.89
2022-12-17T08:48:04.149Z,-0.81
2022-12-17T08:51:25.999Z,-0.91
2022-12-17T08:54:46.457Z,-0.83
2022-12-17T08:58:13.833Z,-0.71
2022-12-17T09:01:35.557Z,-1.01
2022-12-17T09:04:55.691Z,-0.94
2022-12-17T09:08:21.412Z,-0.82
2022-12-17T09:11:50.270Z,-0.80
2022-12-17T09:15:12.815Z,-0.68
2022-12-17T09:18:39.800Z,-0.70
2022-12-17T09:21:59.823Z,-0.69
2022-12-17T09:25:21.203Z,-0.93
2022-12-17T09:28:41.560Z,-0.70
2022-12-17T09:35:43.555Z,-0.80
2022-12-17T09:39:03.718Z,-0.80
2022-12-17T09:42:37.239Z,-0.81
2022-12-17T09:46:02.782Z,-0.65
2022-12-17T09:49:35.738Z,-0.65
2022-12-17T09:53:00.678Z,-0.67
2022-12-17T09:56:22.918Z,-0.68
2022-12-17T09:59:47.431Z,-0.67
2022-12-17T10:03:07.773Z,-0.61
2022-12-17T10:06:36.863Z,-0.73
2022-12-17T10:09:58.098Z,-0.84
2022-12-17T10:13:18.385Z,-0.84
2022-12-17T10:16:46.470Z,-0.74
2022-12-17T10:20:11.152Z,-0.77
2022-12-17T10:23:42.725Z,-0.63
2022-12-17T10:27:08.713Z,-0.62
2022-12-17T10:30:42.567Z,-0.78
2022-12-17T10:34:05.852Z,-0.94
2022-12-17T10:37:39.299Z,-0.81
2022-12-17T10:41:01.015Z,-0.60
2022-12-17T10:44:22.657Z,-0.81
2022-12-17T10:47:44.967Z,-0.83
2022-12-17T10:51:06.527Z,-0.79
2022-12-17T10:54:36.259Z,-0.75
2022-12-17T10:57:58.150Z,-0.75
2022-12-17T11:01:20.396Z,-0.63
2022-12-17T11:04:43.793Z,-0.64
2022-12-17T11:08:05.512Z,-0.67
2022-12-17T11:11:28.804Z,-0.63
2022-12-17T11:14:54.287Z,-0.64
2022-12-17T11:18:14.507Z,-0.64
2022-12-17T11:21:40.393Z,-0.96
2022-12-17T11:25:09.737Z,-0.91
2022-12-17T11:28:36.698Z,-0.76
2022-12-17T11:36:04.052Z,-0.66
2022-12-17T11:39:29.973Z,-0.72
2022-12-17T11:42:55.203Z,-0.69
2022-12-17T11:46:27.479Z,-0.58
2022-12-17T11:49:59.174Z,-0.69
2022-12-17T11:53:28.125Z,-0.77
2022-12-17T12:04:27.925Z,-0.70
2022-12-17T12:08:01.817Z,-0.72
2022-12-17T12:11:32.098Z,-1.02
2022-12-17T12:15:02.832Z,-0.92
2022-12-17T12:18:30.632Z,-0.79
2022-12-17T12:21:57.795Z,-0.95
2022-12-17T12:29:50.498Z,-0.89
2022-12-17T12:33:24.238Z,-1.07
2022-12-17T12:36:47.178Z,-0.98
2022-12-17T12:40:21.891Z,-1.05
2022-12-17T12:43:49.930Z,-1.08
2022-12-17T12:47:16.227Z,-1.24
2022-12-17T12:50:48.527Z,-1.05
2022-12-17T12:54:16.517Z,-1.17
2022-12-17T12:57:44.891Z,-0.98
2022-12-17T13:01:14.978Z,-1.09
2022-12-17T13:04:47.764Z,-1.20
2022-12-17T13:07:51.707Z,-1.09
2022-12-17T13:10:55.177Z,-1.24
2022-12-17T13:14:08.045Z,-1.36
2022-12-17T13:17:29.763Z,-1.18
2022-12-17T13:20:34.478Z,-1.22
2022-12-17T13:23:40.346Z,-1.28
2022-12-17T13:26:46.256Z,-1.36
2022-12-17T13:29:50.238Z,-1.36
2022-12-17T13:33:09.214Z,-1.32
2022-12-17T13:36:20.833Z,-1.28
2022-12-17T13:39:38.783Z,-1.33
2022-12-17T13:42:42.184Z,-1.30
2022-12-17T13:45:46.692Z,-1.30
2022-12-17T13:48:59.240Z,-1.26
2022-12-17T13:52:11.226Z,-1.24
2022-12-17T13:55:22.381Z,-1.37
2022-12-17T13:58:27.054Z,-1.33
2022-12-17T14:01:32.246Z,-1.33
2022-12-17T14:04:36.410Z,-1.35
2022-12-17T14:07:41.702Z,-1.27
2022-12-17T14:10:52.156Z,-1.31
2022-12-17T14:13:53.876Z,-1.30
2022-12-17T14:16:58.144Z,-1.20
2022-12-17T14:23:31.797Z,-1.39
2022-12-17T14:26:34.556Z,-1.38
2022-12-17T14:29:48.623Z,-1.21
2022-12-17T14:32:51.358Z,-1.49
2022-12-17T14:35:58.096Z,-1.55
2022-12-17T14:39:04.163Z,-1.42
2022-12-17T14:42:26.518Z,-1.38
2022-12-17T14:49:06.095Z,-1.59
2022-12-17T14:52:15.051Z,-1.82
2022-12-17T14:58:58.657Z,-1.57
2022-12-17T15:02:05.377Z,-1.47
2022-12-17T15:05:08.280Z,-1.72
2022-12-17T15:08:14.198Z,-1.82
2022-12-17T15:11:19.850Z,-1.81
2022-12-17T15:14:22.538Z,-1.77
2022-12-17T15:17:26.482Z,-1.82
2022-12-17T15:20:29.159Z,-1.82
2022-12-17T15:23:34.822Z,-1.67
2022-12-17T15:26:37.589Z,-1.74
2022-12-17T15:29:41.635Z,-1.73
2022-12-17T15:32:46.362Z,-1.73
2022-12-17T15:35:50.567Z,-1.85
2022-12-17T15:38:55.872Z,-1.72
2022-12-17T15:42:17.130Z,-1.84
2022-12-17T15:45:19.858Z,-1.98
2022-12-17T15:48:24.811Z,-2.07
2022-12-17T15:51:27.511Z,-2.06
2022-12-17T15:54:32.828Z,-1.96
2022-12-17T15:57:35.489Z,-1.91
2022-12-17T16:00:39.458Z,-1.92
2022-12-17T16:03:42.652Z,-1.85
2022-12-17T16:06:46.656Z,-1.65
2022-12-17T16:09:52.027Z,-1.87
2022-12-17T16:12:54.705Z,-1.85
2022-12-17T16:16:04.064Z,-1.92
2022-12-17T16:22:29.187Z,-1.74
2022-12-17T16:25:34.529Z,-1.82
2022-12-17T16:28:38.842Z,-1.93
2022-12-17T16:31:41.854Z,-1.86
2022-12-17T16:34:46.432Z,-1.73
2022-12-17T16:37:49.205Z,-1.72
2022-12-17T16:40:57.168Z,-1.86
2022-12-17T16:44:00.745Z,-1.87
2022-12-17T16:47:05.057Z,-1.76
2022-12-17T16:50:09.514Z,-1.74
2022-12-17T16:53:12.738Z,-1.74
2022-12-17T16:56:18.898Z,-1.45
2022-12-17T16:59:24.598Z,-1.90
2022-12-17T17:02:28.883Z,-1.95
2022-12-17T17:05:34.632Z,-1.97
2022-12-17T17:08:39.718Z,-2.00
2022-12-17T17:11:51.092Z,-1.83
2022-12-17T17:14:54.227Z,-1.83
2022-12-17T17:18:01.646Z,-1.85
2022-12-17T17:21:24.333Z,-1.94
2022-12-17T17:24:27.350Z,-1.88
2022-12-17T17:27:31.788Z,-1.86
2022-12-17T17:30:34.995Z,-1.79
2022-12-17T17:33:40.344Z,-1.91
2022-12-17T17:36:45.132Z,-1.85
2022-12-17T17:39:48.013Z,-1.82
2022-12-17T17:42:54.074Z,-1.69
2022-12-17T17:45:56.973Z,-1.62
2022-12-17T17:49:03.777Z,-1.63
2022-12-17T17:52:09.998Z,-1.66
2022-12-17T17:55:13.726Z,-1.58
2022-12-17T17:58:19.380Z,-1.48
2022-12-17T18:01:24.806Z,-1.42
2022-12-17T18:04:29.236Z,-1.59
2022-12-17T18:07:32.194Z,-1.56
2022-12-17T18:10:36.462Z,-1.57
2022-12-17T18:13:57.942Z,-1.59
2022-12-17T18:17:00.926Z,-1.67
2022-12-17T18:20:05.256Z,-1.41
2022-12-17T18:23:09.733Z,-1.41
2022-12-17T18:26:15.463Z,-1.58
2022-12-17T18:32:44.354Z,-1.55
2022-12-17T18:35:48.802Z,-1.72
2022-12-17T18:38:57.145Z,-1.74
2022-12-17T18:42:24.312Z,-1.60
2022-12-17T18:45:29.891Z,-1.68
2022-12-17T18:48:32.855Z,-1.83
2022-12-17T18:51:38.252Z,-1.85
2022-12-17T18:54:42.094Z,-1.85
2022-12-17T18:57:48.055Z,-1.65
2022-12-17T19:00:53.447Z,-1.93
2022-12-17T19:03:57.870Z,-1.95
2022-12-17T19:07:00.852Z,-1.87
2022-12-17T19:10:05.092Z,-1.91
2022-12-17T19:13:07.977Z,-2.02
2022-12-17T19:16:15.586Z,-1.79
2022-12-17T19:19:19.185Z,-1.84
2022-12-17T19:22:23.182Z,-1.63
2022-12-17T19:25:26.344Z,-1.93
2022-12-17T19:28:30.262Z,-2.06
2022-12-17T19:31:35.709Z,-2.15
2022-12-17T19:34:39.829Z,-2.03
2022-12-17T19:37:43.618Z,-1.93
2022-12-17T19:40:53.135Z,-1.93
2022-12-17T19:43:58.484Z,-2.05
2022-12-17T19:47:04.034Z,-2.20
2022-12-17T19:50:07.784Z,-2.08
2022-12-17T19:53:11.560Z,-2.10
2022-12-17T19:56:18.165Z,-2.03
2022-12-17T19:59:22.078Z,-2.02
2022-12-17T20:02:32.563Z,-1.94
2022-12-17T20:05:36.003Z,-2.23
2022-12-17T20:08:40.364Z,-2.32
2022-12-17T20:11:44.628Z,-2.38
2022-12-17T20:14:47.517Z,-2.59
2022-12-17T20:17:52.839Z,-2.30
2022-12-17T20:21:02.628Z,-2.52
2022-12-17T20:24:07.403Z,-2.45
2022-12-17T20:27:11.961Z,-2.49
2022-12-17T20:30:15.005Z,-2.45
2022-12-17T20:33:20.430Z,-2.56
2022-12-17T20:36:24.156Z,-2.50
2022-12-17T20:39:28.524Z,-2.67
2022-12-17T20:42:31.626Z,-2.79
2022-12-17T20:45:35.752Z,-2.10
2022-12-17T20:48:42.416Z,-2.06
2022-12-17T20:51:45.624Z,-2.28
2022-12-17T20:54:49.381Z,-2.30
2022-12-17T20:57:53.622Z,-2.23
2022-12-17T21:01:04.612Z,-2.25
2022-12-17T21:04:10.397Z,-2.31
2022-12-17T21:07:13.281Z,-2.43
2022-12-17T21:10:17.624Z,-2.44
2022-12-17T21:13:33.682Z,-2.30
2022-12-17T21:16:38.271Z,-2.32
2022-12-17T21:19:43.978Z,-2.27
2022-12-17T21:22:47.351Z,-2.33
2022-12-17T21:25:58.869Z,-2.47
2022-12-17T21:29:03.980Z,-2.38
2022-12-17T21:32:08.116Z,-2.29
2022-12-17T21:35:13.477Z,-2.31
2022-12-17T21:38:17.341Z,-2.39
2022-12-17T21:41:24.101Z,-2.51
2022-12-17T21:44:27.024Z,-2.46
2022-12-17T21:47:31.045Z,-2.43
2022-12-17T21:50:35.388Z,-2.60
2022-12-17T21:53:41.884Z,-2.34
2022-12-17T21:56:45.776Z,-2.49
2022-12-17T21:59:48.691Z,-2.43
2022-12-17T22:02:53.398Z,-2.43
2022-12-17T22:05:57.717Z,-2.57
2022-12-17T22:09:07.813Z,-2.50
2022-12-17T22:12:33.541Z,-2.79
2022-12-17T22:15:43.443Z,-2.81
2022-12-17T22:18:52.537Z,-2.72
2022-12-17T22:21:57.806Z,-2.61
2022-12-17T22:25:07.806Z,-2.48
2022-12-17T22:28:13.329Z,-2.48
2022-12-17T22:31:35.356Z,-2.55
2022-12-17T22:35:22.230Z,-2.60
2022-12-17T22:42:53.390Z,-2.50
2022-12-17T22:44:35.015Z,-2.65
2022-12-17T22:45:13.996Z,-2.79
2022-12-17T22:48:17.200Z,-2.72
2022-12-17T22:51:27.924Z,-2.70
2022-12-17T22:54:35.254Z,-2.64
2022-12-17T22:57:38.766Z,-2.61
2022-12-17T23:00:42.487Z,-2.40
2022-12-17T23:03:45.540Z,-2.46
2022-12-17T23:06:49.249Z,-2.52
2022-12-17T23:09:53.327Z,-2.40
2022-12-17T23:12:57.348Z,-2.62
2022-12-17T23:16:00.129Z,-2.95
2022-12-17T23:19:03.390Z,-3.17
2022-12-17T23:22:06.922Z,-3.04
2022-12-17T23:25:11.963Z,-2.84
2022-12-17T23:28:15.836Z,-2.86
2022-12-17T23:31:22.183Z,-2.89
2022-12-17T23:34:25.763Z,-3.01
2022-12-17T23:37:29.374Z,-3.13
2022-12-17T23:40:33.427Z,-3.12
2022-12-17T23:43:37.399Z,-3.07
2022-12-17T23:46:41.282Z,-3.21
2022-12-17T23:49:44.055Z,-3.20
2022-12-17T23:52:47.614Z,-3.06
2022-12-17T23:55:51.786Z,-3.02
2022-12-17T23:58:57.021Z,-2.98
